METAR Data
IDs: Format: Raw Decoded Include TAF

Data at: 0115 UTC 20 Jan 2022

SAAR 200100Z 11007KT CAVOK 27/21 Q1012 RMK PP000